Time;durP1;ratioP1;P1;durP2;ratioP2;P2;SDS_P1;SDS_P2;PMS_P1;PMS_P2;Temp;Humidity;BMP_temperature;BMP_pressure;BME280_temperature;BME280_humidity;BME280_pressure;Samples;Min_cycle;Max_cycle;Signal;HPM_P1;HPM_P2
2022/07/03 00:01:34;;;;;;;;;;;;;;;17.40;93.90;101760.47;4923064;29;19903;-80
2022/07/03 00:03:59;;;;;;;;;;;;;;;17.40;93.81;101761.28;4921992;29;19930;-80
2022/07/03 00:06:25;;;;;;;;;;;;;;;17.41;94.14;101762.94;4938761;29;19919;-81
2022/07/03 00:08:52;;;;;;;;;;;;;;;17.38;93.43;101758.81;4932157;29;19951;-81
2022/07/03 00:11:17;;;;;;;;;;;;;;;17.35;93.60;101758.38;4917324;29;19923;-81
2022/07/03 00:13:43;;;;;;;;;;;;;;;17.33;93.33;101769.50;4923065;29;19966;-81
2022/07/03 00:16:08;;;;;;;;;;;;;;;17.35;93.54;101763.84;4920498;29;19986;-80
2022/07/03 00:18:36;;;;;;;;;;;;;;;17.32;91.83;101756.13;4921072;29;19946;-81
2022/07/03 00:21:03;;;;;;;;;;;;;;;17.29;93.85;101760.13;4921820;29;19919;-80
2022/07/03 00:23:44;;;;;;;;;;;;;;;17.25;92.86;101750.75;4915743;29;19948;-81
2022/07/03 00:26:11;;;;;;;;;;;;;;;17.19;93.13;101757.06;4933051;29;19922;-81
2022/07/03 00:28:37;;;;;;;;;;;;;;;17.18;93.86;101760.81;4935141;29;19915;-81
2022/07/03 00:31:02;;;;;;;;;;;;;;;17.14;93.83;101756.88;4937175;29;19922;-81
2022/07/03 00:33:33;;;;;;;;;;;;;;;17.11;94.26;101760.84;4937286;29;19915;-81
2022/07/03 00:35:59;;;;;;;;;;;;;;;17.13;94.84;101757.94;4920436;29;19919;-81
2022/07/03 00:38:25;;;;;;;;;;;;;;;17.12;94.59;101761.72;4917938;29;19971;-80
2022/07/03 00:40:50;;;;;;;;;;;;;;;17.09;94.90;101749.38;4919853;29;19930;-80
2022/07/03 00:43:17;;;;;;;;;;;;;;;17.11;95.03;101749.97;4920072;29;19922;-81
2022/07/03 00:45:45;;;;;;;;;;;;;;;17.09;94.93;101752.09;4936094;29;19915;-81
2022/07/03 00:48:12;;;;;;;;;;;;;;;17.17;94.48;101751.00;4920229;29;19981;-80
2022/07/03 00:50:44;;;;;;;;;;;;;;;17.21;94.08;101752.22;4936220;29;19966;-81
2022/07/03 00:53:10;;;;;;;;;;;;;;;17.22;93.43;101761.22;4920844;29;19938;-81
2022/07/03 00:55:36;;;;;;;;;;;;;;;17.19;92.76;101746.19;4920215;29;19983;-80
2022/07/03 00:58:02;;;;;;;;;;;;;;;17.20;92.29;101745.13;4919411;29;19915;-81
2022/07/03 01:00:28;;;;;;;;;;;;;;;17.14;91.95;101737.84;4918150;29;19927;-81
2022/07/03 01:02:53;;;;;;;;;;;;;;;17.14;91.73;101740.56;4937270;29;19915;-80
2022/07/03 01:05:21;;;;;;;;;;;;;;;17.07;91.86;101734.34;4920978;29;19915;-80
2022/07/03 01:08:05;;;;;;;;;;;;;;;17.00;92.02;101728.13;4920684;29;19925;-80
2022/07/03 01:10:37;;;;;;;;;;;;;;;16.90;92.46;101734.84;4930425;29;19935;-80
2022/07/03 01:13:09;;;;;;;;;;;;;;;16.83;93.19;101723.19;4921302;29;19916;-81
2022/07/03 01:15:46;;;;;;;;;;;;;;;16.75;93.68;101728.88;4922695;29;19915;-80
2022/07/03 01:18:27;;;;;;;;;;;;;;;16.68;94.04;101731.59;4901424;29;19946;-80
2022/07/03 01:20:59;;;;;;;;;;;;;;;16.62;94.82;101720.75;4917756;29;19958;-80
2022/07/03 01:23:34;;;;;;;;;;;;;;;16.55;95.51;101720.78;4901646;29;19926;-81
2022/07/03 01:26:03;;;;;;;;;;;;;;;16.52;96.36;101725.81;4932616;29;19923;-81
2022/07/03 01:28:28;;;;;;;;;;;;;;;16.47;97.37;101726.47;4922947;29;19962;-80
2022/07/03 01:30:54;;;;;;;;;;;;;;;16.43;98.29;101725.25;4922826;29;19930;-80
2022/07/03 01:33:23;;;;;;;;;;;;;;;16.38;99.03;101720.44;4910725;29;19947;-81
2022/07/03 01:36:00;;;;;;;;;;;;;;;16.36;99.57;101717.13;4899816;29;19931;-81
2022/07/03 01:38:29;;;;;;;;;;;;;;;16.35;100.00;101726.31;4907615;29;20326;-80
2022/07/03 01:40:55;;;;;;;;;;;;;;;16.33;100.00;101720.28;4931862;29;19923;-81
2022/07/03 01:43:25;;;;;;;;;;;;;;;16.32;100.00;101728.63;4934752;29;19922;-80
2022/07/03 01:45:50;;;;;;;;;;;;;;;16.37;98.96;101726.09;4933030;29;19916;-81
2022/07/03 01:48:16;;;;;;;;;;;;;;;16.44;99.92;101722.31;4917012;29;19915;-80
2022/07/03 01:50:42;;;;;;;;;;;;;;;16.44;100.00;101735.88;4927032;29;19986;-80
2022/07/03 01:53:08;;;;;;;;;;;;;;;16.48;99.43;101730.03;4916620;29;19927;-80
2022/07/03 01:55:34;;;;;;;;;;;;;;;16.50;99.40;101739.63;4924690;29;20014;-80
2022/07/03 01:58:00;;;;;;;;;;;;;;;16.48;99.14;101735.47;4919203;29;19974;-81
2022/07/03 02:00:27;;;;;;;;;;;;;;;16.48;99.14;101735.47;4935260;29;19942;-80
2022/07/03 02:03:13;;;;;;;;;;;;;;;16.50;98.36;101734.19;4919156;29;19935;-81
2022/07/03 02:05:42;;;;;;;;;;;;;;;16.50;99.04;101728.78;4917235;29;19919;-80
2022/07/03 02:08:26;;;;;;;;;;;;;;;16.47;99.18;101731.91;4919957;29;19946;-80
2022/07/03 02:11:15;;;;;;;;;;;;;;;16.44;98.59;101727.75;4922350;29;20080;-80
2022/07/03 02:14:00;;;;;;;;;;;;;;;16.45;99.27;101731.28;4911340;29;19939;-81
2022/07/03 02:16:27;;;;;;;;;;;;;;;16.39;99.33;101730.28;4920795;29;19916;-81
2022/07/03 02:18:57;;;;;;;;;;;;;;;16.40;98.44;101731.94;4922683;29;19967;-81
2022/07/03 02:21:24;;;;;;;;;;;;;;;16.43;99.10;101739.66;4925739;29;19911;-81
2022/07/03 02:24:08;;;;;;;;;;;;;;;16.44;99.24;101735.88;4906635;29;20400;-80
2022/07/03 02:26:38;;;;;;;;;;;;;;;16.41;99.17;101736.31;4923352;29;19921;-82
2022/07/03 02:29:15;;;;;;;;;;;;;;;16.40;98.64;101731.94;4937524;29;19923;-80
2022/07/03 02:31:42;;;;;;;;;;;;;;;16.15;98.28;101673.97;4939497;29;19915;-81
2022/07/03 02:34:07;;;;;;;;;;;;;;;16.50;99.12;101731.50;4937426;29;19932;-81
2022/07/03 02:36:34;;;;;;;;;;;;;;;16.49;99.09;101728.97;4907669;29;19923;-80
2022/07/03 02:38:59;;;;;;;;;;;;;;;16.48;98.87;101728.13;4922813;29;19923;-80
2022/07/03 02:41:28;;;;;;;;;;;;;;;16.49;99.42;101735.25;4939167;29;19907;-80
2022/07/03 02:44:03;;;;;;;;;;;;;;;16.52;99.64;101734.81;4936799;29;20001;-78
2022/07/03 02:46:50;;;;;;;;;;;;;;;16.59;99.86;101734.81;4939748;29;19923;-81
2022/07/03 02:49:34;;;;;;;;;;;;;;;16.75;99.02;101728.88;4924075;29;19915;-80
2022/07/03 02:52:26;;;;;;;;;;;;;;;16.70;98.91;101727.84;4939070;29;20328;-81
2022/07/03 02:54:52;;;;;;;;;;;;;;;16.68;99.63;101722.59;4915389;29;19934;-80
2022/07/03 02:57:19;;;;;;;;;;;;;;;17.12;98.91;101716.31;4923162;29;19919;-80
2022/07/03 02:59:50;;;;;;;;;;;;;;;17.58;97.36;101720.53;4923291;29;19991;-81
2022/07/03 03:02:21;;;;;;;;;;;;;;;17.39;96.24;101724.28;4922408;29;19943;-81
2022/07/03 03:05:16;;;;;;;;;;;;;;;17.32;97.59;101726.22;4922440;29;19915;-81
2022/07/03 03:07:47;;;;;;;;;;;;;;;17.90;97.16;101722.34;4899611;29;19915;-80
2022/07/03 03:10:17;;;;;;;;;;;;;;;18.82;92.90;101722.31;4922143;29;19919;-80
2022/07/03 03:12:45;;;;;;;;;;;;;;;19.53;89.99;101726.00;4921770;29;20034;-81
2022/07/03 03:15:12;;;;;;;;;;;;;;;19.83;87.15;101734.13;4921839;29;19971;-81
2022/07/03 03:17:43;;;;;;;;;;;;;;;20.19;84.18;101733.84;4939389;29;19915;-81
2022/07/03 03:20:14;;;;;;;;;;;;;;;20.06;84.49;101725.91;4921962;29;19965;-80
2022/07/03 03:23:01;;;;;;;;;;;;;;;20.36;83.38;101724.88;4923840;29;19915;-81
2022/07/03 03:25:27;;;;;;;;;;;;;;;20.92;81.38;101720.53;4937843;29;19926;-81
2022/07/03 03:27:54;;;;;;;;;;;;;;;21.33;79.20;101726.72;4923663;29;19915;-81
2022/07/03 03:30:19;;;;;;;;;;;;;;;21.21;77.23;101724.06;4908345;29;19919;-80
2022/07/03 03:32:46;;;;;;;;;;;;;;;20.54;81.31;101732.97;4919929;29;19946;-82
2022/07/03 03:35:11;;;;;;;;;;;;;;;19.92;85.43;101729.97;4923709;29;19903;-81
2022/07/03 03:37:37;;;;;;;;;;;;;;;19.58;87.04;101723.41;4940207;29;19923;-81
2022/07/03 03:40:03;;;;;;;;;;;;;;;19.35;89.12;101721.50;4939393;29;19978;-82
2022/07/03 03:42:29;;;;;;;;;;;;;;;19.21;89.53;101720.88;4925152;29;19951;-81
2022/07/03 03:44:54;;;;;;;;;;;;;;;19.09;91.27;101722.75;4920929;29;19921;-80
2022/07/03 03:47:19;;;;;;;;;;;;;;;19.07;92.10;101719.41;4941240;29;19910;-81
2022/07/03 03:49:44;;;;;;;;;;;;;;;19.06;90.96;101717.75;4909404;29;19915;-81
2022/07/03 03:52:09;;;;;;;;;;;;;;;19.08;90.90;101721.09;4927686;29;19911;-82
2022/07/03 03:54:36;;;;;;;;;;;;;;;19.09;91.85;101718.13;4916934;29;20305;-80
2022/07/03 03:57:15;;;;;;;;;;;;;;;19.13;91.47;101723.94;4930203;29;19920;-81
2022/07/03 03:59:40;;;;;;;;;;;;;;;19.10;91.71;101727.13;4935670;29;19919;-81
2022/07/03 04:02:06;;;;;;;;;;;;;;;19.06;89.88;101709.56;4922295;29;19926;-82
2022/07/03 04:04:31;;;;;;;;;;;;;;;19.00;91.15;101711.31;4908382;29;19914;-80
2022/07/03 04:06:57;;;;;;;;;;;;;;;18.96;92.02;101701.97;4908339;29;19919;-82
2022/07/03 04:09:23;;;;;;;;;;;;;;;18.83;89.55;101707.59;4907623;29;19947;-81
2022/07/03 04:11:48;;;;;;;;;;;;;;;18.78;91.42;101706.41;4921966;29;19964;-80
2022/07/03 04:14:13;;;;;;;;;;;;;;;18.72;92.24;101704.59;4923485;29;19946;-81
2022/07/03 04:16:38;;;;;;;;;;;;;;;18.71;92.27;101699.38;4922906;29;19947;-81
2022/07/03 04:19:03;;;;;;;;;;;;;;;18.69;92.25;101696.84;4923242;29;19967;-81
2022/07/03 04:21:30;;;;;;;;;;;;;;;18.69;93.05;101709.66;4908333;29;19927;-81
2022/07/03 04:23:55;;;;;;;;;;;;;;;18.65;92.96;101703.84;4922881;29;19907;-80
2022/07/03 04:26:20;;;;;;;;;;;;;;;18.68;92.72;101702.56;4923954;29;19914;-81
2022/07/03 04:28:46;;;;;;;;;;;;;;;18.66;92.06;101701.94;4923124;29;19990;-81
2022/07/03 04:31:11;;;;;;;;;;;;;;;18.63;92.14;101705.97;4922977;29;19919;-81
2022/07/03 04:33:36;;;;;;;;;;;;;;;18.59;91.87;101709.38;4922606;29;19920;-81
2022/07/03 04:36:02;;;;;;;;;;;;;;;18.51;90.41;101707.81;4923114;29;19976;-81
2022/07/03 04:38:27;;;;;;;;;;;;;;;18.48;89.57;101711.00;4907402;29;19930;-82
2022/07/03 04:40:52;;;;;;;;;;;;;;;18.49;89.28;101702.59;4918555;29;19931;-81
2022/07/03 04:43:18;;;;;;;;;;;;;;;18.49;88.96;101701.75;4940420;29;19919;-82
2022/07/03 04:45:43;;;;;;;;;;;;;;;18.46;88.03;101694.88;4923623;29;19911;-81
2022/07/03 04:48:08;;;;;;;;;;;;;;;18.44;88.42;101699.72;4924671;29;19919;-81
2022/07/03 04:50:35;;;;;;;;;;;;;;;18.41;87.18;101696.59;4923558;29;19925;-82
2022/07/03 04:53:00;;;;;;;;;;;;;;;18.39;86.79;101701.47;4906549;29;19930;-84
2022/07/03 04:55:25;;;;;;;;;;;;;;;18.36;87.41;101699.19;4922398;29;19946;-84
2022/07/03 04:57:50;;;;;;;;;;;;;;;18.38;89.35;101708.00;4921788;29;19919;-83
2022/07/03 05:00:16;;;;;;;;;;;;;;;18.33;89.11;101705.94;4923509;29;20459;-82
2022/07/03 05:02:41;;;;;;;;;;;;;;;18.31;90.45;101697.19;4923420;29;19943;-82
2022/07/03 05:05:06;;;;;;;;;;;;;;;18.25;91.70;101698.09;4940552;29;19919;-83
2022/07/03 05:07:32;;;;;;;;;;;;;;;18.23;91.96;101692.84;4940275;29;19966;-83
2022/07/03 05:09:58;;;;;;;;;;;;;;;18.24;91.75;101699.13;4923546;29;19907;-83
2022/07/03 05:12:23;;;;;;;;;;;;;;;18.23;91.69;101701.03;4923851;29;19903;-83
2022/07/03 05:14:48;;;;;;;;;;;;;;;18.27;91.41;101702.22;4942369;29;19939;-83
2022/07/03 05:17:16;;;;;;;;;;;;;;;18.28;91.65;101698.47;4922191;29;19908;-84
2022/07/03 05:19:41;;;;;;;;;;;;;;;18.33;90.49;101700.47;4925476;29;19919;-82
2022/07/03 05:22:06;;;;;;;;;;;;;;;18.36;91.00;101697.31;4895299;29;19926;-82
2022/07/03 05:24:31;;;;;;;;;;;;;;;18.38;91.55;101697.91;4917162;29;19920;-83
2022/07/03 05:26:57;;;;;;;;;;;;;;;18.40;91.50;101703.13;4913435;29;19919;-83
2022/07/03 05:29:22;;;;;;;;;;;;;;;18.41;92.00;101702.91;4905497;29;19919;-83
2022/07/03 05:31:47;;;;;;;;;;;;;;;18.43;92.50;101702.66;4912835;29;19927;-83
2022/07/03 05:34:12;;;;;;;;;;;;;;;18.43;94.01;101699.94;4931559;29;19926;-83
2022/07/03 05:36:38;;;;;;;;;;;;;;;18.43;95.04;101705.41;4916821;29;19927;-84
2022/07/03 05:41:47;;;;;;;;;;;;;;;18.41;97.75;101702.06;4926387;29;19934;-82
2022/07/03 05:44:12;;;;;;;;;;;;;;;18.36;99.10;101696.47;4930291;29;19927;-82
2022/07/03 05:46:37;;;;;;;;;;;;;;;18.26;99.30;101700.56;4909778;29;19916;-82
2022/07/03 05:49:02;;;;;;;;;;;;;;;18.20;100.00;101703.38;4908959;29;19951;-82
2022/07/03 05:51:28;;;;;;;;;;;;;;;18.11;100.00;101712.91;4910170;29;20468;-82
2022/07/03 05:53:53;;;;;;;;;;;;;;;18.04;100.00;101708.34;4890568;29;19927;-83
2022/07/03 05:56:18;;;;;;;;;;;;;;;17.95;100.00;101706.19;4904458;29;19948;-81
2022/07/03 05:58:43;;;;;;;;;;;;;;;17.96;100.00;101705.13;4924379;29;19903;-82
2022/07/03 06:01:09;;;;;;;;;;;;;;;17.93;100.00;101700.94;4894962;29;19990;-83
2022/07/03 06:03:34;;;;;;;;;;;;;;;17.94;100.00;101707.22;4910373;29;20314;-83
2022/07/03 06:05:59;;;;;;;;;;;;;;;17.89;100.00;101696.19;4926016;29;19915;-82
2022/07/03 06:08:24;;;;;;;;;;;;;;;17.89;100.00;101693.47;4904034;29;19952;-83
2022/07/03 06:10:50;;;;;;;;;;;;;;;17.90;100.00;101698.69;4926874;29;19919;-82
2022/07/03 06:13:15;;;;;;;;;;;;;;;17.92;100.00;101695.75;4906093;29;19919;-82
2022/07/03 06:15:40;;;;;;;;;;;;;;;17.93;100.00;101700.13;4908982;29;20298;-82
2022/07/03 06:18:05;;;;;;;;;;;;;;;17.90;100.00;101706.03;4929955;29;19951;-82
2022/07/03 06:20:31;;;;;;;;;;;;;;;17.93;100.00;101695.50;4914157;29;19982;-82
2022/07/03 06:22:56;;;;;;;;;;;;;;;17.93;100.00;101691.94;4910398;29;19931;-82
2022/07/03 06:25:21;;;;;;;;;;;;;;;17.85;100.00;101690.38;4903263;29;19919;-82
2022/07/03 06:27:46;;;;;;;;;;;;;;;17.95;100.00;101687.13;4903586;29;19920;-82
2022/07/03 06:30:12;;;;;;;;;;;;;;;17.84;100.00;101686.78;4906041;29;19919;-82
2022/07/03 06:32:37;;;;;;;;;;;;;;;17.95;100.00;101690.69;4929124;29;19955;-83
2022/07/03 06:35:03;;;;;;;;;;;;;;;17.91;100.00;101684.00;4912173;29;19993;-83
2022/07/03 06:37:28;;;;;;;;;;;;;;;17.92;100.00;101682.13;4929630;29;19980;-82
2022/07/03 06:39:53;;;;;;;;;;;;;;;17.99;100.00;101674.72;4910052;29;20014;-82
2022/07/03 06:42:18;;;;;;;;;;;;;;;18.04;100.00;101672.13;4914817;29;19920;-82
2022/07/03 06:44:44;;;;;;;;;;;;;;;18.08;100.00;101671.47;4908100;29;19942;-82
2022/07/03 06:47:10;;;;;;;;;;;;;;;18.14;100.00;101669.69;4908038;29;20007;-82
2022/07/03 06:49:35;;;;;;;;;;;;;;;18.16;100.00;101653.13;4907504;29;19923;-82
2022/07/03 06:52:00;;;;;;;;;;;;;;;18.17;100.00;101652.91;4926456;29;19926;-83
2022/07/03 06:54:26;;;;;;;;;;;;;;;18.22;100.00;101655.78;4924395;29;19938;-83
2022/07/03 06:56:51;;;;;;;;;;;;;;;18.23;100.00;101651.16;4923062;29;19938;-82
2022/07/03 06:59:17;;;;;;;;;;;;;;;18.25;100.00;101649.88;5072612;23;19912;-83
2022/07/03 07:01:43;;;;;;;;;;;;;;;18.25;100.00;101654.50;4935656;29;19945;-83
2022/07/03 07:04:08;;;;;;;;;;;;;;;18.24;100.00;101652.81;4907352;29;20516;-82
2022/07/03 07:06:34;;;;;;;;;;;;;;;18.19;100.00;101649.97;4911416;29;19923;-84
2022/07/03 07:11:35;;;;;;;;;;;;;;;18.14;100.00;101650.63;5630536;23;19925;-79
2022/07/03 07:21:46;;;;;;;;;;;;;;;18.31;100.00;101639.97;5254403;23;19912;-83
2022/07/03 07:24:11;;;;;;;;;;;;;;;18.33;100.00;101634.28;5538275;23;19975;-82
2022/07/03 07:34:22;;;;;;;;;;;;;;;18.25;100.00;101627.25;6007176;23;20586;-79
2022/07/03 07:39:18;;;;;;;;;;;;;;;18.13;100.00;101615.47;4962169;23;19929;-83
2022/07/03 07:41:44;;;;;;;;;;;;;;;18.08;100.00;101617.00;4948313;29;19965;-81
2022/07/03 07:44:09;;;;;;;;;;;;;;;18.07;100.00;101625.38;4945667;28;19937;-81
2022/07/03 07:46:35;;;;;;;;;;;;;;;18.07;100.00;101620.75;4941855;29;19921;-81
2022/07/03 07:49:00;;;;;;;;;;;;;;;18.05;100.00;101616.63;4959613;29;19923;-82
2022/07/03 07:51:26;;;;;;;;;;;;;;;18.01;100.00;101607.22;4944658;29;19922;-82
2022/07/03 07:53:52;;;;;;;;;;;;;;;17.96;100.00;101615.25;4944130;28;19938;-82
2022/07/03 07:56:17;;;;;;;;;;;;;;;17.95;100.00;101617.16;4925958;29;19900;-81
2022/07/03 07:58:43;;;;;;;;;;;;;;;17.98;100.00;101607.69;4934286;29;19946;-80
2022/07/03 08:06:36;;;;;;;;;;;;;;;18.26;100.00;101602.50;4942234;29;20003;-82
2022/07/03 08:09:02;;;;;;;;;;;;;;;18.33;100.00;101593.41;4933582;28;19907;-83
2022/07/03 08:11:28;;;;;;;;;;;;;;;18.45;100.00;101595.09;4943100;28;19907;-84
2022/07/03 08:13:53;;;;;;;;;;;;;;;18.52;100.00;101592.28;4926925;28;19899;-83
2022/07/03 08:16:18;;;;;;;;;;;;;;;18.62;100.00;101594.44;4926713;28;19938;-83
2022/07/03 08:21:19;;;;;;;;;;;;;;;18.73;100.00;101589.03;5761487;23;19941;-83
2022/07/03 08:23:44;;;;;;;;;;;;;;;18.78;100.00;101591.91;4924816;29;19967;-82
2022/07/03 08:26:10;;;;;;;;;;;;;;;18.80;100.00;101596.28;4924884;29;19908;-82
2022/07/03 08:28:35;;;;;;;;;;;;;;;18.75;100.00;101586.09;4923681;29;19907;-83
2022/07/03 08:31:01;;;;;;;;;;;;;;;18.82;100.00;101594.16;4923964;29;19912;-83
2022/07/03 08:33:28;;;;;;;;;;;;;;;18.84;100.00;101586.56;4965531;23;19926;-81
2022/07/03 08:35:55;;;;;;;;;;;;;;;18.78;100.00;101591.91;4933646;29;19928;-83
2022/07/03 08:38:29;;;;;;;;;;;;;;;18.72;100.00;101592.00;4912193;29;19914;-82
2022/07/03 08:40:56;;;;;;;;;;;;;;;18.63;100.00;101601.53;4940321;29;19931;-82
2022/07/03 08:43:22;;;;;;;;;;;;;;;18.58;100.00;101595.97;4933257;29;19930;-84
2022/07/03 08:45:47;;;;;;;;;;;;;;;18.47;100.00;101606.59;4925557;29;19907;-83
2022/07/03 08:48:13;;;;;;;;;;;;;;;18.39;100.00;101595.19;4941431;29;19907;-82
2022/07/03 09:58:40;;;;;;;;;;;;;;;16.62;100.00;101566.72;5890615;23;21007;31
2022/07/03 10:01:15;;;;;;;;;;;;;;;16.65;100.00;101579.00;4916085;29;19912;-83
2022/07/03 10:29:33;;;;;;;;;;;;;;;16.57;100.00;101571.16;5092601;23;19937;-83
2022/07/03 10:31:58;;;;;;;;;;;;;;;16.65;100.00;101574.44;4943267;29;19911;-83
2022/07/03 10:37:01;;;;;;;;;;;;;;;16.82;100.00;101550.28;5125841;23;19911;-84
2022/07/03 10:39:38;;;;;;;;;;;;;;;16.97;100.00;101557.25;4926917;29;19907;-83
2022/07/03 10:44:51;;;;;;;;;;;;;;;17.37;100.00;101563.97;4930077;29;19930;-83
2022/07/03 10:47:35;;;;;;;;;;;;;;;17.63;100.00;101572.91;4909320;29;19907;-83
2022/07/03 10:50:03;;;;;;;;;;;;;;;17.83;100.00;101575.41;4931753;29;19927;-83
2022/07/03 10:52:28;;;;;;;;;;;;;;;17.97;100.00;101568.72;4942102;29;19984;-84
2022/07/03 10:54:56;;;;;;;;;;;;;;;18.02;100.00;101570.78;4925514;29;19907;-82
2022/07/03 10:57:21;;;;;;;;;;;;;;;18.10;100.00;101565.00;4927846;29;19915;-85
2022/07/03 10:59:47;;;;;;;;;;;;;;;18.24;100.00;101566.47;4927950;29;19914;-85
2022/07/03 11:02:32;;;;;;;;;;;;;;;18.30;100.00;101571.00;4928518;29;19914;-83
2022/07/03 11:05:00;;;;;;;;;;;;;;;18.52;100.00;101573.19;4925402;29;19975;-84
2022/07/03 11:12:55;;;;;;;;;;;;;;;18.49;100.00;101573.66;5627216;23;19911;-83
2022/07/03 11:15:40;;;;;;;;;;;;;;;18.71;100.00;101572.06;4936784;29;19919;-84
2022/07/03 12:05:15;;;;;;;;;;;;;;;20.50;100.00;101490.34;5570767;23;19927;-83
2022/07/03 12:07:43;;;;;;;;;;;;;;;20.75;100.00;101493.47;4926469;29;19942;-82
2022/07/03 12:10:11;;;;;;;;;;;;;;;20.93;100.00;101497.88;4940122;29;19919;-80
2022/07/03 12:12:37;;;;;;;;;;;;;;;21.06;100.00;101503.00;5060628;23;19927;-81
2022/07/03 12:15:02;;;;;;;;;;;;;;;21.09;100.00;101516.16;4932385;29;19967;-83
2022/07/03 12:17:28;;;;;;;;;;;;;;;21.28;100.00;101507.66;4931578;29;19931;-84
2022/07/03 12:19:54;;;;;;;;;;;;;;;21.28;100.00;101504.91;4941402;29;19923;-81
2022/07/03 12:22:30;;;;;;;;;;;;;;;21.22;100.00;101511.38;4928747;29;19934;-81
2022/07/03 12:40:27;;;;;;;;;;;;;;;21.19;100.00;101525.56;5042723;23;19911;-80
2022/07/03 12:42:56;;;;;;;;;;;;;;;21.24;100.00;101509.25;4905782;29;19958;-80
2022/07/03 12:45:22;;;;;;;;;;;;;;;21.20;100.00;101508.09;4914994;29;19926;-79
2022/07/03 12:48:04;;;;;;;;;;;;;;;21.06;100.00;101504.91;4917792;29;19971;-80
2022/07/03 12:50:51;;;;;;;;;;;;;;;20.89;100.00;101504.91;4909851;29;19952;-81
2022/07/03 12:53:30;;;;;;;;;;;;;;;20.80;100.00;101518.19;4914890;29;19934;-80
2022/07/03 12:56:02;;;;;;;;;;;;;;;20.68;100.00;101516.63;4931032;29;19919;-80
2022/07/03 13:01:33;;;;;;;;;;;;;;;21.19;100.00;101515.47;4933776;29;19955;-81
2022/07/03 13:04:01;;;;;;;;;;;;;;;21.67;100.00;101521.31;4920184;29;19947;-82
2022/07/03 13:06:27;;;;;;;;;;;;;;;21.99;100.00;101524.97;4913273;29;19931;-80
2022/07/03 13:08:53;;;;;;;;;;;;;;;22.21;100.00;101529.59;4929267;29;19922;-80
2022/07/03 13:11:29;;;;;;;;;;;;;;;22.40;100.00;101527.31;4912240;29;19927;-80
2022/07/03 13:14:02;;;;;;;;;;;;;;;22.43;100.00;101524.03;4915009;29;19927;-80
2022/07/03 13:16:27;;;;;;;;;;;;;;;22.43;100.00;101524.03;4929311;29;19978;-81
2022/07/03 13:18:59;;;;;;;;;;;;;;;22.60;100.00;101534.88;4932482;29;19915;-82
2022/07/03 13:21:24;;;;;;;;;;;;;;;22.76;100.00;101539.41;4901256;29;19999;-79
2022/07/03 13:23:49;;;;;;;;;;;;;;;22.93;100.00;101526.38;4923109;29;20004;-81
2022/07/03 13:26:16;;;;;;;;;;;;;;;22.83;100.00;101539.19;4904942;29;19912;-81
2022/07/03 13:28:41;;;;;;;;;;;;;;;22.81;100.00;101522.13;4915842;29;19923;-80
2022/07/03 13:31:06;;;;;;;;;;;;;;;22.83;100.00;101528.19;4933169;29;19935;-82
2022/07/03 13:33:32;;;;;;;;;;;;;;;22.90;100.00;101524.13;4906875;29;19907;-81
2022/07/03 13:35:57;;;;;;;;;;;;;;;22.97;100.00;101521.19;4912319;29;19899;-82
2022/07/03 13:50:14;;;;;;;;;;;;;;;23.17;97.65;101512.25;6052419;23;19996;31
2022/07/03 13:52:39;;;;;;;;;;;;;;;23.39;96.37;101515.66;4918906;29;19919;-81
2022/07/03 13:55:05;;;;;;;;;;;;;;;23.59;96.73;101514.91;4920504;29;19978;-83
2022/07/03 13:57:32;;;;;;;;;;;;;;;23.75;96.58;101515.84;4903453;29;19908;-82
2022/07/03 14:15:28;;;;;;;;;;;;;;;23.32;95.17;101515.09;5393493;23;19927;-82
2022/07/03 14:17:53;;;;;;;;;;;;;;;23.26;95.85;101516.16;4923723;29;19954;-81
2022/07/03 14:20:19;;;;;;;;;;;;;;;23.15;93.73;101511.69;4935221;29;19915;-80
2022/07/03 14:33:05;;;;;;;;;;;;;;;23.65;93.05;101511.09;5606887;23;19918;-81
2022/07/03 14:43:17;;;;;;;;;;;;;;;23.38;95.56;101510.44;5068849;23;19919;-81
2022/07/03 14:45:42;;;;;;;;;;;;;;;23.22;95.27;101515.03;4941276;29;19914;-82
2022/07/03 14:48:08;;;;;;;;;;;;;;;23.08;96.08;101514.69;4925194;29;19907;-82
2022/07/03 14:50:34;;;;;;;;;;;;;;;23.07;97.20;101512.19;5445547;23;19912;-80
2022/07/03 14:52:59;;;;;;;;;;;;;;;23.06;97.63;101508.63;5253242;23;19998;-81
2022/07/03 14:55:30;;;;;;;;;;;;;;;23.00;97.95;101506.13;4919754;29;19931;-81
2022/07/03 14:58:15;;;;;;;;;;;;;;;23.09;97.46;101505.34;5657525;23;19906;-79
2022/07/03 15:00:42;;;;;;;;;;;;;;;23.12;97.34;101501.25;4924359;29;19970;-80
2022/07/03 15:03:21;;;;;;;;;;;;;;;23.08;97.15;101505.59;4940154;28;19930;-80
2022/07/03 15:05:47;;;;;;;;;;;;;;;23.06;97.10;101494.91;4940563;28;19915;-81
2022/07/03 15:08:28;;;;;;;;;;;;;;;23.07;96.82;101491.03;5460999;23;20852;-81
2022/07/03 15:10:54;;;;;;;;;;;;;;;22.97;96.21;101491.81;4935440;29;19911;-80
2022/07/03 15:21:05;;;;;;;;;;;;;;;22.59;97.81;101476.47;5918151;23;19926;-80
2022/07/03 15:23:31;;;;;;;;;;;;;;;22.51;98.46;101483.22;5358379;23;20013;-80
2022/07/03 15:25:56;;;;;;;;;;;;;;;22.44;98.92;101474.41;4926363;29;19911;-80
2022/07/03 15:28:23;;;;;;;;;;;;;;;22.36;99.23;101472.16;4920881;29;19943;-80
2022/07/03 15:30:50;;;;;;;;;;;;;;;22.25;99.50;101465.78;4914468;29;19899;-80
2022/07/03 15:33:15;;;;;;;;;;;;;;;22.10;97.12;101464.78;4937092;29;19966;-80
2022/07/03 15:35:45;;;;;;;;;;;;;;;22.13;98.23;101475.22;4917955;29;19963;-80
2022/07/03 15:40:46;;;;;;;;;;;;;;;22.07;98.50;101482.56;5359781;23;19911;-82
2022/07/03 15:43:14;;;;;;;;;;;;;;;22.01;97.43;101470.72;4942070;29;19958;-81
2022/07/03 15:48:21;;;;;;;;;;;;;;;21.99;96.25;101477.56;5228533;23;19937;-80
2022/07/03 15:51:05;;;;;;;;;;;;;;;21.99;96.64;101477.56;4942090;29;19923;-80
2022/07/03 15:53:35;;;;;;;;;;;;;;;22.02;96.28;101480.59;4921178;29;19924;-81
2022/07/03 15:56:03;;;;;;;;;;;;;;;22.07;96.30;101484.47;4921571;29;20237;-80
2022/07/03 15:58:30;;;;;;;;;;;;;;;22.10;96.08;101483.97;4908952;29;19954;-80
2022/07/03 16:03:51;;;;;;;;;;;;;;;22.09;96.26;101474.09;4923770;29;19906;-81
2022/07/03 16:06:16;;;;;;;;;;;;;;;22.11;97.23;101471.91;4907162;29;19974;-83
2022/07/03 16:08:46;;;;;;;;;;;;;;;22.08;97.09;101477.91;4906896;29;19927;-80
2022/07/03 16:11:13;;;;;;;;;;;;;;;22.03;97.93;101470.47;4940138;29;19911;-80
2022/07/03 16:13:39;;;;;;;;;;;;;;;21.96;97.96;101469.84;4940230;29;19915;-80
2022/07/03 16:16:06;;;;;;;;;;;;;;;21.92;98.75;101463.22;4924458;29;20268;-80
2022/07/03 16:18:32;;;;;;;;;;;;;;;21.87;98.63;101474.16;4922839;29;19955;-81
2022/07/03 16:20:59;;;;;;;;;;;;;;;21.80;99.02;101469.69;4939822;29;19970;-80
2022/07/03 16:23:25;;;;;;;;;;;;;;;21.80;99.00;101468.88;4923019;29;19939;-80
2022/07/03 16:25:52;;;;;;;;;;;;;;;21.80;99.31;101479.81;4917290;29;20005;-80
2022/07/03 16:28:18;;;;;;;;;;;;;;;22.15;98.41;101473.91;4922723;29;19919;-80
2022/07/03 16:30:47;;;;;;;;;;;;;;;22.31;97.59;101474.03;4938270;29;19915;-80
2022/07/03 16:33:12;;;;;;;;;;;;;;;22.32;96.20;101473.78;4923330;29;19903;-80
2022/07/03 16:35:50;;;;;;;;;;;;;;;22.32;96.94;101470.19;4922565;29;20429;-80
2022/07/03 16:38:22;;;;;;;;;;;;;;;22.35;97.49;101476.00;4908180;29;19938;-81
2022/07/03 16:40:50;;;;;;;;;;;;;;;22.25;98.15;101468.53;4923153;29;19923;-80
2022/07/03 16:43:17;;;;;;;;;;;;;;;22.15;97.44;101456.59;4921566;29;19917;-80
2022/07/03 16:45:43;;;;;;;;;;;;;;;22.08;98.55;101455.97;4921130;29;19979;-79
2022/07/03 16:48:19;;;;;;;;;;;;;;;21.96;98.56;101459.72;4931029;29;19931;-81
2022/07/03 16:50:57;;;;;;;;;;;;;;;21.82;99.37;101453.00;4924161;29;19910;-80
2022/07/03 16:53:23;;;;;;;;;;;;;;;21.77;99.10;101450.22;4936427;29;19951;-80
2022/07/03 16:55:49;;;;;;;;;;;;;;;21.76;99.38;101443.09;4905430;29;19919;-79
2022/07/03 16:58:15;;;;;;;;;;;;;;;21.76;98.47;101441.16;4904795;29;19923;-79
2022/07/03 17:00:44;;;;;;;;;;;;;;;21.78;98.80;101443.63;4939323;29;19982;-79